Ewen, MI

5:09 PM EDT on May 27, 2015 (GMT -0400)
Ewen MI | | Change Station
CLOSE
Current Station
Personal Weather Station
Location: Ewen, MI
Elevation: 1181 ft
Nearby Weather Stations

Elev 1181 ft 46.52 °N, 89.27 °W | Updated 7 minutes ago

Partly Cloudy
Partly Cloudy
81.5 °F
Feels Like 81 °F
N
11.9
Wind Variable Wind from West

Today
High -- | Low -- °F
--% Chance of Precip.
Yesterday
High -- | Low -- °F
Precip. -- in
6:11 AM 9:38 PM
Waxing Gibbous, 70% visible
Pressure 29.92 in
Visibility 10.0 miles
Clouds Scattered Clouds 5000 ft
Scattered Clouds 7000 ft
Scattered Clouds 8000 ft
Heat Index 81 °F
Dew Point 53 °F
Humidity 38%
Rainfall 0.27 in
Snow Depth Not available.
UV 5 out of 12
Pollen 4.00 out of 12
Air Quality Not available.
Flu Activity Sporadic
METAR KLNL 272055Z AUTO 27006KT 10SM SCT050 SCT070 SCT080 25/11 A2992 RMK AO2 T02470110

More Conditions Fewer Conditions

Pressure 29.92 in
Visibility 10.0 miles
Clouds Scattered Clouds 5000 ft
Scattered Clouds 7000 ft
Scattered Clouds 8000 ft
Heat Index 81 °F
Dew Point 53 °F
Humidity 38%
Rainfall 0.27 in
Snow Depth Not available.
UV 5 out of 12
Pollen 4.00 out of 12
Air Quality Not available.
Flu Activity Sporadic
METAR KLNL 272055Z AUTO 27006KT 10SM SCT050 SCT070 SCT080 25/11 A2992 RMK AO2 T02470110

More Conditions Fewer Conditions

10-Day Weather Forecast

Almanac

Astronomy

May. 27, 2015 Rise Set
Actual Time
Civil Twilight
Nautical Twilight
Astronomical Twilight
Moon
Length of Visible Light
Length of Day
Tomorrow will be .
, % of the Moon is Illuminated

Today's Extremes

State Highs State Lows

Community

WunderPhotos

Upload Photos

1,824,796 photos uploaded!

WunderBlogs® & News

Nearby

Air Quality

  Air Quality AQ Index Pollutant
Not available.

Snow Depth

Station Depth Elevation

Earthquake Activity

City Distance Mag. Time & Date
Minimum magnitude displayed is 2.5.

Coastal Water Temperatures

Place Temperature

Stations

Nearby Weather Stations

Station Location Temp. Windchill Dew Point Humidity Wind Precip. Elev Updated Type